This is the latest recevied weather packets stored in our database for station/object KC3SPD-13. If no packets are shown the sender has not sent any weather packets the latest 10 day(s).
| Time | Temp. | Humidity | Pressure | Rain* | Wind** | Luminosity | Snow |
|---|---|---|---|---|---|---|---|
| 1777004704 | 18.89° C | 62% | 963.7 hPa | 0 mm | - | 0 W/m² | - |
| 1777004104 | 18.89° C | 63% | 963.7 hPa | 0 mm | - | 0 W/m² | - |
| 1777000804 | 19.44° C | 62% | 964.2 hPa | 0 mm | - | 0 W/m² | - |
| 1776999604 | 20° C | 61% | 964.3 hPa | 0 mm | - | 0 W/m² | - |
| 1776997804 | 20.56° C | 59% | 964.6 hPa | 0 mm | - | 0 W/m² | - |
| 1776996604 | 20° C | 59% | 964.6 hPa | 0 mm | - | 0 W/m² | - |
| 1776994803 | 21.11° C | 55% | 964.5 hPa | 0 mm | - | 0 W/m² | - |
| 1776994503 | 21.67° C | 54% | 964.5 hPa | 0 mm | - | 0 W/m² | - |
| 1776993604 | 21.67° C | 52% | 964.5 hPa | 0 mm | - | 0 W/m² | - |
| 1776993304 | 22.22° C | 52% | 964.4 hPa | 0 mm | - | 0 W/m² | - |
| 1776992704 | 22.78° C | 49% | 964.3 hPa | 0 mm | - | 0 W/m² | - |
| 1776992104 | 22.22° C | 50% | 964.3 hPa | 0 mm | - | 0 W/m² | - |
| 1776990904 | 22.78° C | 49% | 964.2 hPa | 0 mm | - | 0 W/m² | - |
| 1776989705 | 22.78° C | 50% | 964.1 hPa | 0 mm | - | 5 W/m² | - |
| 1776988804 | 23.33° C | 48% | 964 hPa | 0 mm | - | 14 W/m² | - |
| 1776987604 | 24.44° C | 46% | 964 hPa | 0 mm | - | 0 W/m² | - |
| 1776986704 | 25.56° C | 44% | 963.9 hPa | 0 mm | - | 0 W/m² | - |
| 1776985204 | 25.56° C | 44% | 963.8 hPa | 0 mm | - | 0 W/m² | - |
| 1776984004 | 26.11° C | 43% | 963.8 hPa | 0 mm | - | 0 W/m² | - |
| 1776982804 | 25.56° C | 44% | 963.9 hPa | 0 mm | - | 0 W/m² | - |
| 1776981604 | 26.11° C | 42% | 963.8 hPa | 0 mm | - | 0 W/m² | - |
| 1776977704 | 26.11° C | 41% | 964.2 hPa | 0 mm | - | 0 W/m² | - |
| 1776975604 | 26.11° C | 41% | 964.2 hPa | 0 mm | - | 0 W/m² | - |
| 1776975004 | 26.11° C | 41% | 964.4 hPa | 0 mm | - | 0 W/m² | - |
| 1776974404 | 25.56° C | 40% | 964.4 hPa | 0 mm | - | 0 W/m² | - |
* Rain latest hour (hover to see other rain measurements)
** Current wind speed in m/s (hover to see current wind gust speed)